TAF KTLH
KTLH 090541Z 0906/1006 36003KT P6SM SKC FM090900 04003KT 6SM BR SCT004 BKN007 FM091600 19004KT P6SM SCT007 OVC015 FM092000 19004KT P6SM SCT025 FM100000 VRB04KT 6SM BR SCT015 OVC050=
METAR KTLH
KTLH 090653Z AUTO 00000KT 10SM BKN007 12/11 A3007 RMK AO2 SLP180 T01170111 ?
SPECI KTLH 090645Z AUTO 00000KT 10SM SCT009 12/11 A3007 RMK AO2 T01170111 ?
KTLH 090553Z AUTO 01003KT 10SM CLR 13/12 A3007 RMK AO2 SLP181 T01330122 10183 20133 50002
KTLH 090453Z AUTO 01004KT 10SM CLR 14/13 A3007 RMK AO2 SLP182 T01390128 402670139 ?
KTLH 090353Z 36003KT 10SM FEW250 15/13 A3008 RMK AO2 SLP184 T01500133 ?
WC KTLH
WS KTLH
WV KTLH